Aeroporto :
LOGIN :

Iscrizione | Disclaimer

   EN    FR    IT 

 










Sommario :    VFR   VFR Marginale   IFR   IFR Intensivo   IFR Molto Intensivo
Visibilità : 
Base nubi : 
>= 8 km
>= 3000ft
5 / 8 km
1000 / 3000 ft
1500m / 5 km
500 / 1000 ft
800 / 1500m
200 / 500 ft
< 800m
< 200 ft
Simboli :   Temporali  Nebbia  Neve Forte  Precipitazioni Forti  Vento > 20 kt
SIGMETs :   Varie  Temporali  Ghiacco  Turbolenza  Onda orograficha  Ceneri Vulcaniche







- Altitudine del aeroporto : 156 ft
- Codice IATA : MLN


GEML - Melilla

ULTIMO METAR :
  • 171200Z 29006KT 240V340 9999 FEW020 23/14 Q1016

METARs OBSOLETI :
  • 171130Z 30007KT 250V340 9999 FEW020 23/15 Q1017
  • 171100Z 29007KT 230V330 9999 FEW020 23/15 Q1017
  • 171030Z 26007KT 230V310 9999 FEW018 22/16 Q1017
  • 171000Z 29006KT 240V330 9999 FEW018 22/16 Q1017
  • 170930Z 27007KT 210V320 9999 FEW014 21/16 Q1017

TAF TAF GEML
Valido dal 17 a 09 ore il 18 a 09 ore UTC


170800Z 1709/1809 26005KT 9999 FEW010 TX24/1714Z TN16/1806Z
Nessun NOTAM noto per questo aeroporto.



MetMap, La meteo Aeronautica in un colpo d'occhio ! - Copyright ORBIFLY Dicembre 2007 - Disclaimer

ORBIFLY MET'MAP TEAM :

Programmazione e sviluppo : Alexandra Zaïnal
Concezione e sviluppo : Baudouin d'Aumeries
Co-Programmazione e sviluppo : Marc-Olivier Méhu
Supporto tecnico e logistico : Manuel Goepfert
Aiuto per la traduzione : Arnaldo La Scala

Contatto : metmap@orbifly.com




FONTI E CREDITI :

   NOAA